createdAt,value
2022-11-09T00:01:17.375Z,99810.72
2022-11-09T00:03:43.569Z,99850.22
2022-11-09T00:06:09.845Z,99850.28
2022-11-09T00:08:36.547Z,99867.94
2022-11-09T00:11:03.687Z,99904.81
2022-11-09T00:13:29.896Z,99907.19
2022-11-09T00:15:59.368Z,99936.25
2022-11-09T00:18:25.596Z,99936.78
2022-11-09T00:20:51.795Z,99952.41
2022-11-09T00:23:18.404Z,99947.69
2022-11-09T00:25:44.793Z,99919.09
2022-11-09T00:28:11.000Z,99909.81
2022-11-09T00:30:37.207Z,99872.44
2022-11-09T00:33:03.431Z,99893.06
2022-11-09T00:35:29.633Z,99865.81
2022-11-09T00:37:55.930Z,99860.84
2022-11-09T00:40:22.188Z,99885.47
2022-11-09T00:42:48.396Z,99905.09
2022-11-09T00:45:14.609Z,99889.91
2022-11-09T00:47:40.866Z,99877.13
2022-11-09T00:50:07.353Z,99888.16
2022-11-09T00:52:33.564Z,99916.19
2022-11-09T00:54:59.760Z,99932.34
2022-11-09T00:57:25.969Z,99893.31
2022-11-09T00:59:52.177Z,99900.13
2022-11-09T01:02:18.383Z,99887.88
2022-11-09T01:04:44.581Z,99894.25
2022-11-09T01:07:10.846Z,99927.63
2022-11-09T01:09:37.082Z,99961.88
2022-11-09T01:12:03.341Z,99971.88
2022-11-09T01:14:29.538Z,100011.41
2022-11-09T01:16:55.743Z,100002.25
2022-11-09T01:19:21.943Z,100022.41
2022-11-09T01:21:48.151Z,100024.50
2022-11-09T01:24:14.359Z,100010.13
2022-11-09T01:26:40.563Z,100012.50
2022-11-09T01:29:06.761Z,100023.75
2022-11-09T01:31:32.990Z,100017.22
2022-11-09T01:33:59.183Z,100020.91
2022-11-09T01:36:25.393Z,100029.53
2022-11-09T01:38:51.618Z,100040.78
2022-11-09T01:41:17.779Z,100019.81
2022-11-09T01:43:43.977Z,99991.06
2022-11-09T01:46:15.156Z,100013.84
2022-11-09T01:48:53.408Z,100030.38
2022-11-09T01:51:23.206Z,100062.53
2022-11-09T01:53:49.668Z,100024.63
2022-11-09T01:56:15.882Z,100014.41
2022-11-09T01:59:05.367Z,100019.88
2022-11-09T02:01:31.718Z,100014.44
2022-11-09T02:04:02.835Z,100022.00
2022-11-09T02:06:29.130Z,100027.03
2022-11-09T02:08:56.339Z,100009.19
2022-11-09T02:11:22.548Z,100032.75
2022-11-09T02:13:49.489Z,100030.16
2022-11-09T02:16:15.700Z,100028.56
2022-11-09T02:18:45.342Z,100016.84
2022-11-09T02:21:11.551Z,100035.22
2022-11-09T02:23:37.748Z,100059.50
2022-11-09T02:26:05.442Z,100049.28
2022-11-09T02:28:31.662Z,100048.78
2022-11-09T02:30:57.889Z,100044.09
2022-11-09T02:33:24.100Z,100052.72
2022-11-09T02:35:50.341Z,100040.66
2022-11-09T02:38:16.568Z,100029.69
2022-11-09T02:40:43.573Z,100036.50
2022-11-09T02:43:09.784Z,100032.06
2022-11-09T02:45:36.087Z,100033.13
2022-11-09T02:48:02.381Z,100062.41
2022-11-09T02:50:28.612Z,100039.63
2022-11-09T02:52:54.831Z,100044.09
2022-11-09T02:55:21.038Z,100056.13
2022-11-09T02:57:47.248Z,100049.09
2022-11-09T03:00:13.452Z,100050.63
2022-11-09T03:02:39.670Z,100055.13
2022-11-09T03:05:06.063Z,100033.13
2022-11-09T03:07:32.268Z,100054.06
2022-11-09T03:09:58.476Z,100066.34
2022-11-09T03:12:24.698Z,100058.00
2022-11-09T03:14:50.906Z,100049.88
2022-11-09T03:17:17.124Z,100060.59
2022-11-09T03:19:43.315Z,100040.69
2022-11-09T03:22:09.517Z,100020.31
2022-11-09T03:24:35.729Z,100014.31
2022-11-09T03:27:01.934Z,100026.59
2022-11-09T03:29:28.128Z,100013.75
2022-11-09T03:31:54.332Z,99988.63
2022-11-09T03:34:20.534Z,99985.22
2022-11-09T03:36:46.747Z,99973.97
2022-11-09T03:39:12.949Z,99956.97
2022-11-09T03:41:39.165Z,99969.22
2022-11-09T03:44:05.409Z,99961.63
2022-11-09T03:46:31.621Z,99930.50
2022-11-09T03:48:57.826Z,99933.94
2022-11-09T03:51:24.034Z,99939.94
2022-11-09T03:53:50.242Z,99940.75
2022-11-09T03:56:17.111Z,99946.22
2022-11-09T03:58:43.326Z,99971.06
2022-11-09T04:01:09.544Z,99962.19
2022-11-09T04:03:35.793Z,99971.03
2022-11-09T04:06:01.999Z,99949.56
2022-11-09T04:08:28.226Z,99929.94
2022-11-09T04:10:54.424Z,99931.47
2022-11-09T04:13:20.867Z,99939.34
2022-11-09T04:15:47.290Z,99937.00
2022-11-09T04:18:13.926Z,99946.91
2022-11-09T04:20:40.241Z,99924.88
2022-11-09T04:23:06.747Z,99896.84
2022-11-09T04:25:33.463Z,99891.63
2022-11-09T04:28:00.058Z,99880.16
2022-11-09T04:30:26.569Z,99898.53
2022-11-09T04:32:52.774Z,99919.34
2022-11-09T04:35:18.964Z,99881.16
2022-11-09T04:37:52.411Z,99881.38
2022-11-09T04:40:18.638Z,99881.38
2022-11-09T04:42:44.853Z,99867.44
2022-11-09T04:45:11.044Z,99846.25
2022-11-09T04:47:37.295Z,99842.91
2022-11-09T04:50:03.563Z,99873.78
2022-11-09T04:52:29.769Z,99875.03
2022-11-09T04:54:55.963Z,99865.78
2022-11-09T04:57:22.178Z,99835.97
2022-11-09T04:59:48.377Z,99826.78
2022-11-09T05:02:14.580Z,99813.97
2022-11-09T05:04:40.789Z,99832.50
2022-11-09T05:07:07.073Z,99820.47
2022-11-09T05:09:33.310Z,99824.09
2022-11-09T05:11:59.529Z,99817.00
2022-11-09T05:14:25.736Z,99806.75
2022-11-09T05:16:51.945Z,99791.34
2022-11-09T05:19:18.143Z,99792.13
2022-11-09T05:21:44.400Z,99787.66
2022-11-09T05:24:10.599Z,99800.44
2022-11-09T05:26:37.507Z,99795.78
2022-11-09T05:29:04.588Z,99795.28
2022-11-09T05:31:30.910Z,99810.00
2022-11-09T05:33:57.119Z,99843.63
2022-11-09T05:36:23.338Z,99799.00
2022-11-09T05:38:49.658Z,99769.72
2022-11-09T05:41:15.913Z,99777.19
2022-11-09T05:43:42.120Z,99740.00
2022-11-09T05:46:08.332Z,99740.06
2022-11-09T05:48:34.533Z,99754.63
2022-11-09T05:51:01.505Z,99794.88
2022-11-09T05:53:27.717Z,99764.41
2022-11-09T05:55:53.936Z,99756.56
2022-11-09T05:58:20.141Z,99780.75
2022-11-09T06:00:46.348Z,99813.47
2022-11-09T06:03:12.562Z,99784.38
2022-11-09T06:05:39.266Z,99800.59
2022-11-09T06:08:05.560Z,99797.25
2022-11-09T06:10:31.770Z,99829.53
2022-11-09T06:12:57.973Z,99834.44
2022-11-09T06:15:24.174Z,99832.41
2022-11-09T06:17:53.633Z,99862.38
2022-11-09T06:20:19.827Z,99903.66
2022-11-09T06:22:52.369Z,99888.44
2022-11-09T06:25:18.724Z,99886.41
2022-11-09T06:27:44.940Z,99909.94
2022-11-09T06:30:11.301Z,99906.47
2022-11-09T06:32:37.515Z,99913.06
2022-11-09T06:35:03.858Z,99912.41
2022-11-09T06:37:30.065Z,99951.41
2022-11-09T06:39:56.270Z,99968.66
2022-11-09T06:42:22.526Z,99988.63
2022-11-09T06:44:48.773Z,99995.13
2022-11-09T06:47:14.980Z,100010.38
2022-11-09T06:49:41.191Z,100033.94
2022-11-09T06:52:07.404Z,100045.97
2022-11-09T06:54:33.604Z,100043.88
2022-11-09T06:57:00.022Z,100048.03
2022-11-09T06:59:26.233Z,100061.13
2022-11-09T07:01:52.903Z,100055.38
2022-11-09T07:04:20.859Z,100076.59
2022-11-09T07:06:47.102Z,100069.53
2022-11-09T07:09:13.364Z,100081.56
2022-11-09T07:11:39.580Z,100073.94
2022-11-09T07:14:05.789Z,100085.44
2022-11-09T07:16:32.061Z,100069.94
2022-11-09T07:18:58.304Z,100068.63
2022-11-09T07:21:24.518Z,100072.56
2022-11-09T07:23:50.740Z,100065.16
2022-11-09T07:26:16.958Z,100042.66
2022-11-09T07:28:43.156Z,100028.72
2022-11-09T07:31:09.413Z,100018.00
2022-11-09T07:33:35.616Z,100035.31
2022-11-09T07:36:02.076Z,100045.56
2022-11-09T07:38:28.374Z,100063.91
2022-11-09T07:40:54.572Z,100062.06
2022-11-09T07:43:21.044Z,100080.69
2022-11-09T07:45:47.416Z,100088.25
2022-11-09T07:48:13.620Z,100083.19
2022-11-09T07:50:39.864Z,100055.63
2022-11-09T07:53:06.125Z,100041.44
2022-11-09T07:55:32.389Z,100043.00
2022-11-09T07:58:06.435Z,100032.03
2022-11-09T08:00:33.287Z,100068.72
2022-11-09T08:02:59.494Z,100061.84
2022-11-09T08:05:25.784Z,100046.31
2022-11-09T08:08:02.027Z,100031.19
2022-11-09T08:10:28.545Z,100015.09
2022-11-09T08:12:58.476Z,99975.88
2022-11-09T08:15:24.679Z,99948.41
2022-11-09T08:17:50.952Z,99927.53
2022-11-09T08:20:17.265Z,99870.19
2022-11-09T08:22:43.816Z,99872.91
2022-11-09T08:25:10.060Z,99813.91
2022-11-09T08:27:36.305Z,99753.25
2022-11-09T08:30:02.508Z,99720.56
2022-11-09T08:32:28.787Z,99702.34
2022-11-09T08:34:55.017Z,99678.34
2022-11-09T08:37:21.232Z,99644.03
2022-11-09T08:39:47.429Z,99677.75
2022-11-09T08:42:13.659Z,99679.13
2022-11-09T08:44:39.869Z,99653.91
2022-11-09T08:47:06.080Z,99639.81
2022-11-09T08:49:32.284Z,99660.41
2022-11-09T08:51:58.485Z,99636.09
2022-11-09T08:54:24.701Z,99612.66
2022-11-09T08:56:50.910Z,99626.47
2022-11-09T08:59:17.112Z,99638.22
2022-11-09T09:01:43.367Z,99594.16
2022-11-09T09:04:09.637Z,99631.47
2022-11-09T09:06:35.899Z,99660.25
2022-11-09T09:09:02.131Z,99691.34
2022-11-09T09:11:28.543Z,99694.88
2022-11-09T09:13:54.762Z,99718.69
2022-11-09T09:16:20.969Z,99770.91
2022-11-09T09:18:47.586Z,99802.41
2022-11-09T09:21:13.801Z,99812.81
2022-11-09T09:23:40.024Z,99828.88
2022-11-09T09:26:06.233Z,99838.50
2022-11-09T09:28:32.498Z,99817.78
2022-11-09T09:30:59.034Z,99839.66
2022-11-09T09:33:25.450Z,99872.47
2022-11-09T09:35:51.654Z,99867.91
2022-11-09T09:38:18.122Z,99854.19
2022-11-09T09:40:51.404Z,99882.81
2022-11-09T09:43:21.129Z,99905.00
2022-11-09T09:45:48.983Z,99887.50
2022-11-09T09:48:15.165Z,99865.31
2022-11-09T09:50:52.218Z,99838.66
2022-11-09T09:53:27.853Z,99836.91
2022-11-09T09:55:55.505Z,99816.53
2022-11-09T09:58:26.069Z,99781.47
2022-11-09T10:00:52.572Z,99809.31
2022-11-09T10:03:25.866Z,99827.03
2022-11-09T10:06:07.328Z,99827.53
2022-11-09T10:08:37.963Z,99821.28
2022-11-09T10:11:04.186Z,99809.19
2022-11-09T10:13:48.532Z,99792.88
2022-11-09T10:16:18.227Z,99700.69
2022-11-09T10:18:53.547Z,99640.94
2022-11-09T10:21:39.429Z,99611.09
2022-11-09T10:24:06.866Z,99585.38
2022-11-09T10:26:36.233Z,99588.47
2022-11-09T10:29:21.532Z,99540.59
2022-11-09T10:31:48.087Z,99567.66
2022-11-09T10:34:17.001Z,99645.50
2022-11-09T10:36:53.935Z,99682.25
2022-11-09T10:39:20.146Z,99646.94
2022-11-09T10:41:46.352Z,99650.94
2022-11-09T10:44:17.152Z,99663.81
2022-11-09T10:47:02.702Z,99692.78
2022-11-09T10:49:28.948Z,99662.59
2022-11-09T10:51:55.164Z,99698.19
2022-11-09T10:54:21.321Z,99695.38
2022-11-09T10:57:13.564Z,99659.63
2022-11-09T10:59:49.525Z,99701.31
2022-11-09T11:02:24.614Z,99706.59
2022-11-09T11:04:51.465Z,99728.44
2022-11-09T11:07:21.641Z,99740.44
2022-11-09T11:09:48.124Z,99773.69
2022-11-09T11:12:17.632Z,99788.53
2022-11-09T11:14:44.016Z,99820.13
2022-11-09T11:17:39.725Z,99839.31
2022-11-09T11:20:25.713Z,99835.72
2022-11-09T11:22:58.769Z,99814.38
2022-11-09T11:25:24.989Z,99842.81
2022-11-09T11:27:55.977Z,99799.66
2022-11-09T11:30:26.204Z,99744.59
2022-11-09T11:32:52.424Z,99720.53
2022-11-09T11:35:21.417Z,99689.31
2022-11-09T11:38:01.909Z,99660.38
2022-11-09T11:40:29.933Z,99717.53
2022-11-09T11:42:56.088Z,99649.78
2022-11-09T11:45:41.992Z,99550.19
2022-11-09T11:48:14.336Z,99585.22
2022-11-09T11:50:40.523Z,99604.75
2022-11-09T11:53:09.096Z,99635.06
2022-11-09T11:55:46.024Z,99585.06
2022-11-09T11:58:27.584Z,99552.19
2022-11-09T12:01:20.072Z,99598.16
2022-11-09T12:03:56.263Z,99616.94
2022-11-09T12:06:25.533Z,99620.81
2022-11-09T12:08:58.971Z,99624.91
2022-11-09T12:11:25.141Z,99554.44
2022-11-09T12:13:58.041Z,99543.69
2022-11-09T12:16:27.201Z,99586.69
2022-11-09T12:19:13.887Z,99592.38
2022-11-09T12:21:52.698Z,99520.59
2022-11-09T12:24:36.875Z,99530.28
2022-11-09T12:27:26.008Z,99550.88
2022-11-09T12:30:05.348Z,99594.16
2022-11-09T12:32:50.276Z,99588.13
2022-11-09T12:35:36.832Z,99648.75
2022-11-09T12:38:04.757Z,99683.91
2022-11-09T12:40:32.330Z,99642.22
2022-11-09T12:43:01.516Z,99593.34
2022-11-09T12:45:29.264Z,99588.38
2022-11-09T12:47:55.855Z,99613.41
2022-11-09T12:50:22.821Z,99616.31
2022-11-09T12:52:49.164Z,99617.09
2022-11-09T12:55:15.853Z,99689.44
2022-11-09T12:57:44.423Z,99724.41
2022-11-09T13:00:13.845Z,99745.00
2022-11-09T13:02:53.278Z,99710.00
2022-11-09T13:05:28.599Z,99608.75
2022-11-09T13:07:54.811Z,99536.81
2022-11-09T13:10:33.991Z,99528.59
2022-11-09T13:13:04.248Z,99536.13
2022-11-09T13:15:33.990Z,99547.88
2022-11-09T13:18:01.195Z,99576.00
2022-11-09T13:23:47.750Z,99635.59
2022-11-09T13:26:25.175Z,99686.16
2022-11-09T13:29:09.969Z,99662.69
2022-11-09T13:31:54.778Z,99671.03
2022-11-09T13:34:39.683Z,99646.06
2022-11-09T13:37:24.623Z,99633.97
2022-11-09T13:39:50.843Z,99647.84
2022-11-09T13:42:25.133Z,99682.88
2022-11-09T13:44:51.346Z,99760.75
2022-11-09T13:47:21.477Z,99821.81
2022-11-09T13:49:48.240Z,99888.84
2022-11-09T13:52:33.161Z,99905.28
2022-11-09T13:54:59.379Z,99946.28
2022-11-09T13:57:25.607Z,99955.75
2022-11-09T13:59:51.906Z,99910.59
2022-11-09T14:02:21.977Z,99902.63
2022-11-09T14:04:48.218Z,99907.19
2022-11-09T14:07:24.514Z,99880.41
2022-11-09T14:10:17.080Z,99847.75
2022-11-09T14:12:59.554Z,99880.47
2022-11-09T14:15:40.036Z,99911.53
2022-11-09T14:18:25.001Z,99949.75
2022-11-09T14:21:05.094Z,99972.47
2022-11-09T14:23:31.722Z,99962.09
2022-11-09T14:25:57.941Z,99927.69
2022-11-09T14:28:26.314Z,99944.28
2022-11-09T14:30:52.534Z,99940.88
2022-11-09T14:33:25.825Z,99956.50
2022-11-09T14:35:52.583Z,99983.66
2022-11-09T14:38:21.262Z,100001.09
2022-11-09T14:40:48.114Z,100017.69
2022-11-09T14:43:27.745Z,100011.75
2022-11-09T14:45:55.048Z,100013.91
2022-11-09T14:48:21.989Z,100032.16
2022-11-09T14:50:48.595Z,100067.41
2022-11-09T14:53:15.280Z,100093.22
2022-11-09T14:55:41.486Z,100125.56
2022-11-09T14:58:13.684Z,100146.34
2022-11-09T15:00:44.750Z,100163.44
2022-11-09T15:03:25.884Z,100185.25
2022-11-09T15:06:02.466Z,100202.28
2022-11-09T15:08:28.669Z,100193.13
2022-11-09T15:10:54.944Z,100193.91
2022-11-09T15:13:32.305Z,100202.88
2022-11-09T15:15:58.516Z,100223.66
2022-11-09T15:18:33.485Z,100236.53
2022-11-09T15:21:09.590Z,100266.44
2022-11-09T15:23:40.097Z,100273.50
2022-11-09T15:26:11.308Z,100281.09
2022-11-09T15:28:43.358Z,100267.47
2022-11-09T15:31:10.844Z,100252.28
2022-11-09T15:33:46.200Z,100229.75
2022-11-09T15:36:23.053Z,100223.22
2022-11-09T15:38:56.895Z,100225.34
2022-11-09T15:41:23.314Z,100238.94
2022-11-09T15:43:49.530Z,100253.38
2022-11-09T15:46:16.476Z,100263.06
2022-11-09T15:48:45.867Z,100280.09
2022-11-09T15:51:14.353Z,100310.97
2022-11-09T15:53:40.643Z,100326.91
2022-11-09T15:56:07.181Z,100331.91
2022-11-09T15:58:33.396Z,100335.00
2022-11-09T16:00:59.687Z,100362.22
2022-11-09T16:03:25.934Z,100355.63
2022-11-09T16:05:52.446Z,100360.34
2022-11-09T16:08:19.130Z,100356.66
2022-11-09T16:10:45.695Z,100348.56
2022-11-09T16:13:11.913Z,100350.38
2022-11-09T16:15:38.303Z,100338.63
2022-11-09T16:18:04.519Z,100345.38
2022-11-09T16:20:30.720Z,100355.31
2022-11-09T16:22:56.937Z,100366.81
2022-11-09T16:25:23.141Z,100382.25
2022-11-09T16:27:51.018Z,100393.81
2022-11-09T16:30:17.680Z,100412.13
2022-11-09T16:32:43.892Z,100405.34
2022-11-09T16:35:27.807Z,100410.84
2022-11-09T16:37:54.434Z,100401.19
2022-11-09T16:40:20.647Z,100397.28
2022-11-09T16:42:46.858Z,100397.81
2022-11-09T16:45:13.376Z,100402.03
2022-11-09T16:47:40.919Z,100384.72
2022-11-09T16:50:07.269Z,100380.25
2022-11-09T16:52:33.486Z,100367.66
2022-11-09T16:54:59.684Z,100366.06
2022-11-09T16:57:25.919Z,100364.25
2022-11-09T16:59:52.133Z,100359.81
2022-11-09T17:02:18.366Z,100364.47
2022-11-09T17:04:44.582Z,100358.44
2022-11-09T17:07:10.869Z,100350.00
2022-11-09T17:09:37.129Z,100342.91
2022-11-09T17:12:03.980Z,100343.16
2022-11-09T17:14:30.330Z,100337.19
2022-11-09T17:16:59.461Z,100338.97
2022-11-09T17:19:25.673Z,100335.56
2022-11-09T17:21:51.933Z,100324.31
2022-11-09T17:24:18.133Z,100322.25
2022-11-09T17:26:44.341Z,100317.53
2022-11-09T17:29:10.554Z,100320.94
2022-11-09T17:31:36.773Z,100311.50
2022-11-09T17:34:02.991Z,100309.44
2022-11-09T17:36:56.804Z,100304.41
2022-11-09T17:39:15.381Z,100304.91
2022-11-09T17:41:43.017Z,100307.03
2022-11-09T17:44:09.332Z,100299.16
2022-11-09T17:46:35.536Z,100293.44
2022-11-09T17:49:05.714Z,100301.00
2022-11-09T17:51:34.894Z,100295.00
2022-11-09T17:54:01.102Z,100298.66
2022-11-09T17:56:27.401Z,100296.81
2022-11-09T17:58:53.609Z,100294.97
2022-11-09T18:01:20.075Z,100295.75
2022-11-09T18:03:46.432Z,100288.19
2022-11-09T18:06:17.104Z,100284.81
2022-11-09T18:08:43.541Z,100284.25
2022-11-09T18:11:09.751Z,100273.81
2022-11-09T18:13:35.958Z,100269.38
2022-11-09T18:16:06.085Z,100268.28
2022-11-09T18:18:32.293Z,100267.81
2022-11-09T18:20:58.501Z,100253.66
2022-11-09T18:23:24.714Z,100254.16
2022-11-09T18:25:57.243Z,100242.97
2022-11-09T18:28:23.640Z,100254.19
2022-11-09T18:30:50.039Z,100240.34
2022-11-09T18:33:16.244Z,100247.41
2022-11-09T18:35:42.471Z,100242.66
2022-11-09T18:38:12.969Z,100240.06
2022-11-09T18:40:39.480Z,100247.66
2022-11-09T18:43:05.681Z,100245.81
2022-11-09T18:45:31.889Z,100247.94
2022-11-09T18:47:58.106Z,100247.19
2022-11-09T18:50:24.326Z,100241.94
2022-11-09T18:52:50.533Z,100250.56
2022-11-09T18:55:16.792Z,100264.44
2022-11-09T18:57:43.039Z,100274.34
2022-11-09T19:00:09.473Z,100290.34
2022-11-09T19:02:35.729Z,100286.44
2022-11-09T19:05:01.994Z,100301.59
2022-11-09T19:07:28.210Z,100300.88
2022-11-09T19:09:56.708Z,100295.06
2022-11-09T19:12:23.134Z,100302.69
2022-11-09T19:14:49.338Z,100301.38
2022-11-09T19:17:15.702Z,100307.41
2022-11-09T19:19:41.909Z,100306.34
2022-11-09T19:22:17.365Z,100296.69
2022-11-09T19:24:43.556Z,100303.41
2022-11-09T19:27:09.785Z,100306.03
2022-11-09T19:29:35.985Z,100302.84
2022-11-09T19:32:02.201Z,100304.38
2022-11-09T19:34:28.405Z,100297.78
2022-11-09T19:36:54.626Z,100307.97
2022-11-09T19:39:20.833Z,100302.16
2022-11-09T19:41:47.051Z,100303.50
2022-11-09T19:44:13.258Z,100304.50
2022-11-09T19:46:39.471Z,100294.53
2022-11-09T19:49:05.671Z,100298.66
2022-11-09T19:51:31.891Z,100302.03
2022-11-09T19:53:58.992Z,100297.25
2022-11-09T19:56:25.684Z,100298.53
2022-11-09T19:58:52.684Z,100304.25
2022-11-09T20:01:18.962Z,100300.81
2022-11-09T20:03:47.897Z,100298.97
2022-11-09T20:06:14.108Z,100303.09
2022-11-09T20:08:40.301Z,100300.72
2022-11-09T20:11:06.951Z,100302.31
2022-11-09T20:13:33.197Z,100302.00
2022-11-09T20:16:03.324Z,100298.34
2022-11-09T20:18:29.558Z,100298.06
2022-11-09T20:20:55.766Z,100300.50
2022-11-09T20:23:22.008Z,100296.50
2022-11-09T20:25:48.215Z,100292.66
2022-11-09T20:28:14.434Z,100296.88
2022-11-09T20:30:40.645Z,100292.47
2022-11-09T20:33:06.885Z,100299.88
2022-11-09T20:35:33.180Z,100295.50
2022-11-09T20:37:59.397Z,100283.50
2022-11-09T20:40:25.607Z,100270.69
2022-11-09T20:42:51.830Z,100277.25
2022-11-09T20:45:18.054Z,100274.13
2022-11-09T20:48:05.045Z,100276.03
2022-11-09T20:50:30.437Z,100263.75
2022-11-09T20:52:56.653Z,100256.97
2022-11-09T20:55:22.855Z,100253.31
2022-11-09T20:57:49.074Z,100246.00
2022-11-09T21:00:17.282Z,100237.63
2022-11-09T21:02:46.627Z,100240.72
2022-11-09T21:05:12.824Z,100240.94
2022-11-09T21:07:39.041Z,100257.81
2022-11-09T21:10:05.448Z,100259.66
2022-11-09T21:12:31.676Z,100256.22
2022-11-09T21:14:57.872Z,100256.19
2022-11-09T21:17:24.090Z,100264.50
2022-11-09T21:19:50.410Z,100271.03
2022-11-09T21:22:16.633Z,100267.63
2022-11-09T21:24:42.834Z,100265.81
2022-11-09T21:27:11.798Z,100268.59
2022-11-09T21:29:37.998Z,100269.78
2022-11-09T21:32:04.393Z,100266.31
2022-11-09T21:34:36.288Z,100271.00
2022-11-09T21:37:03.140Z,100278.31
2022-11-09T21:39:29.338Z,100280.81
2022-11-09T21:41:55.562Z,100275.81
2022-11-09T21:44:21.761Z,100264.91
2022-11-09T21:46:47.968Z,100271.72
2022-11-09T21:49:14.181Z,100273.81
2022-11-09T21:51:40.376Z,100277.50
2022-11-09T21:54:06.651Z,100264.25
2022-11-09T21:56:32.853Z,100264.44
2022-11-09T21:59:01.968Z,100261.91
2022-11-09T22:01:28.265Z,100257.97
2022-11-09T22:04:00.578Z,100265.81
2022-11-09T22:06:48.199Z,100275.75
2022-11-09T22:09:15.186Z,100270.53
2022-11-09T22:11:41.577Z,100261.38
2022-11-09T22:14:11.739Z,100258.19
2022-11-09T22:16:38.032Z,100259.47
2022-11-09T22:19:04.245Z,100274.19
2022-11-09T22:21:30.580Z,100271.28
2022-11-09T22:23:56.961Z,100267.13
2022-11-09T22:26:23.169Z,100273.41
2022-11-09T22:28:49.364Z,100291.94
2022-11-09T22:31:15.584Z,100303.94
2022-11-09T22:33:41.799Z,100322.50
2022-11-09T22:36:09.273Z,100326.19
2022-11-09T22:38:35.481Z,100340.53
2022-11-09T22:41:02.008Z,100355.19
2022-11-09T22:43:28.553Z,100358.38
2022-11-09T22:45:54.747Z,100366.22
2022-11-09T22:48:20.948Z,100383.22
2022-11-09T22:50:47.150Z,100397.06
2022-11-09T22:53:13.368Z,100383.47
2022-11-09T22:55:39.566Z,100395.97
2022-11-09T22:58:06.062Z,100415.56
2022-11-09T23:00:32.299Z,100427.16
2022-11-09T23:02:58.596Z,100424.84
2022-11-09T23:05:26.831Z,100406.59
2022-11-09T23:07:54.518Z,100402.91
2022-11-09T23:10:20.749Z,100402.41
2022-11-09T23:12:46.964Z,100413.59
2022-11-09T23:15:13.221Z,100429.56
2022-11-09T23:17:39.553Z,100442.59
2022-11-09T23:20:06.124Z,100462.78
2022-11-09T23:22:32.361Z,100465.06
2022-11-09T23:24:58.572Z,100485.78
2022-11-09T23:27:24.825Z,100495.72
2022-11-09T23:29:51.039Z,100488.41
2022-11-09T23:32:17.256Z,100497.03
2022-11-09T23:34:43.461Z,100504.59
2022-11-09T23:37:09.680Z,100509.75
2022-11-09T23:39:35.880Z,100526.94
2022-11-09T23:42:02.080Z,100543.66
2022-11-09T23:44:28.279Z,100557.56
2022-11-09T23:46:54.490Z,100564.44
2022-11-09T23:49:20.698Z,100564.19
2022-11-09T23:51:46.902Z,100560.78
2022-11-09T23:54:13.107Z,100559.19
2022-11-09T23:56:39.719Z,100555.75
2022-11-09T23:59:06.032Z,100572.28
